»·PEaware :: N176CM KSMX-KBFL

N176CM :: KSMX-KBFL

FLIGHT INFORMATION

Flight Status: Arrived
Operator: Privately registered:
United States
More flights under this callsign
Pilot: Carson T. (20437)
Aircraft: CESSNA 172 SKYHAWK
(C172)
More flights by this aircraft type
Origin: KSMX Santa Maria Pub/Capt Hancock
United States
Destination: KBFL Meadows
United States
More flights between these airports :: More routes between these airports
Route: +
File this flight plan on PilotEdge
Remarks:
Altitude:
(Current/Filed)
7,500ft
Speed:
(Current/Filed)
110kts
Departed: 14-Sep-18 05:04 PM
Arrived: 14-Sep-18 05:46 PM
Distance/Time
Traveled:
76nm/0:41
Distance/Time
To Go:
Arrived

Flight Plot

Page will automatically refresh every two minutes.


Map Options




Map Legend


Flown Route
Filed Route
Departure Airport
Arrival Airport
Navaid (VOR, NDB)
Fix

Horizontal Profiles

Position Reports

Time Latitude Longitude Heading Altitude Ground
Speed
14-Sep-18 16:46 34.900078 -120.450683 222 264ft 0kts
14-Sep-18 16:47 34.900078 -120.450683 222 264ft 0kts
14-Sep-18 16:48 34.900078 -120.450683 222 264ft 0kts
14-Sep-18 16:49 34.900078 -120.450683 222 264ft 0kts
14-Sep-18 16:50 34.900078 -120.450683 222 264ft 0kts
14-Sep-18 16:51 34.900076 -120.450685 222 264ft 0kts
14-Sep-18 16:52 34.900074 -120.450687 222 264ft 0kts
14-Sep-18 16:53 34.900072 -120.450689 222 264ft 0kts
14-Sep-18 16:54 34.900070 -120.450691 222 264ft 0kts
14-Sep-18 16:55 34.900068 -120.450694 222 264ft 0kts
14-Sep-18 16:56 34.900067 -120.450695 222 264ft 0kts
14-Sep-18 16:57 34.900067 -120.450695 222 264ft 0kts
14-Sep-18 16:58 34.900067 -120.450696 222 264ft 0kts
14-Sep-18 16:59 34.898932 -120.451120 134 264ft 8kts
14-Sep-18 17:00 34.895911 -120.447565 135 264ft 12kts
14-Sep-18 17:01 34.893479 -120.445731 182 264ft 0kts
14-Sep-18 17:02 34.893478 -120.445731 182 264ft 0kts
14-Sep-18 17:03 34.893478 -120.445731 182 264ft 0kts
14-Sep-18 17:04 34.893477 -120.445731 182 264ft 0kts
14-Sep-18 17:05 34.892930 -120.446029 320 264ft 10kts
14-Sep-18 17:06 34.907616 -120.465259 309 839ft 97kts
14-Sep-18 17:07 34.931277 -120.466234 53 1302ft 115kts
14-Sep-18 17:08 34.936788 -120.431534 85 2032ft 97kts
14-Sep-18 17:09 34.938824 -120.400694 86 2981ft 86kts
14-Sep-18 17:10 34.945171 -120.375797 63 3956ft 75kts
14-Sep-18 17:11 34.953462 -120.353269 60 4902ft 70kts
14-Sep-18 17:12 34.959914 -120.331672 60 5775ft 66kts
14-Sep-18 17:13 34.967599 -120.306370 60 6402ft 95kts
14-Sep-18 17:14 34.978694 -120.274662 60 7055ft 104kts
14-Sep-18 17:15 34.990781 -120.241375 60 7532ft 120kts
14-Sep-18 17:16 35.006022 -120.201396 60 7500ft 132kts
14-Sep-18 17:17 35.021603 -120.160586 60 7500ft 133kts
14-Sep-18 17:18 35.037189 -120.119599 60 7500ft 133kts
14-Sep-18 17:19 35.052766 -120.078644 60 7500ft 133kts
14-Sep-18 17:20 35.068321 -120.037701 60 7500ft 133kts
14-Sep-18 17:21 35.083868 -119.996728 60 7500ft 133kts
14-Sep-18 17:22 35.099401 -119.955737 60 7500ft 133kts
14-Sep-18 17:23 35.114757 -119.914471 61 7500ft 133kts
14-Sep-18 17:24 35.130202 -119.873425 61 7500ft 133kts
14-Sep-18 17:25 35.145687 -119.832388 61 7500ft 133kts
14-Sep-18 17:26 35.161212 -119.791208 61 7500ft 133kts
14-Sep-18 17:27 35.176659 -119.750184 61 7500ft 133kts
14-Sep-18 17:28 35.192168 -119.708940 61 7500ft 133kts
14-Sep-18 17:29 35.207605 -119.667835 61 7500ft 133kts
14-Sep-18 17:30 35.223025 -119.626722 61 7500ft 133kts
14-Sep-18 17:31 35.238479 -119.585464 61 7500ft 133kts
14-Sep-18 17:32 35.253890 -119.544265 61 7500ft 133kts
14-Sep-18 17:33 35.269508 -119.502534 61 7333ft 143kts
14-Sep-18 17:34 35.286839 -119.456324 61 6537ft 154kts
14-Sep-18 17:35 35.304202 -119.409646 61 5613ft 143kts
14-Sep-18 17:36 35.318913 -119.368785 61 5495ft 123kts
14-Sep-18 17:37 35.332679 -119.330855 60 5499ft 121kts
14-Sep-18 17:38 35.346678 -119.293074 60 5499ft 121kts
14-Sep-18 17:39 35.361743 -119.252463 62 4913ft 133kts
14-Sep-18 17:40 35.376928 -119.211371 63 4270ft 127kts
14-Sep-18 17:41 35.382929 -119.171391 88 3700ft 116kts
14-Sep-18 17:42 35.383003 -119.132786 88 3297ft 112kts
14-Sep-18 17:43 35.378320 -119.096344 100 3035ft 102kts
14-Sep-18 17:44 35.378013 -119.063016 66 2368ft 98kts
14-Sep-18 17:45 35.393466 -119.039061 40 1536ft 72kts
14-Sep-18 17:46 35.409530 -119.028141 338 1197ft 67kts
14-Sep-18 17:47 35.423113 -119.043292 315 803ft 63kts
14-Sep-18 17:48 35.434976 -119.057534 314 510ft 30kts
14-Sep-18 17:49 35.436146 -119.057955 57 510ft 0kts
14-Sep-18 17:50 35.435919 -119.056224 134 510ft 17kts
14-Sep-18 17:51 35.435158 -119.053501 38 510ft 4kts
14-Sep-18 17:52 35.436114 -119.051508 33 510ft 9kts
14-Sep-18 17:53 35.436375 -119.051295 34 510ft 0kts

Navigation Log

Ident Type
1. KSMX Airport
2. KBFL Airport